Time;durP1;ratioP1;P1;durP2;ratioP2;P2;SDS_P1;SDS_P2;PMS_P1;PMS_P2;Temp;Humidity;BMP_temperature;BMP_pressure;BME280_temperature;BME280_humidity;BME280_pressure;Samples;Min_cycle;Max_cycle;Signal;HPM_P1;HPM_P2
2023/10/04 00:00:16;;;;;;;9.80;2.50;;;;;;;13.70;100.00;102522.69;5035110;28;20096;-77
2023/10/04 00:02:49;;;;;;;8.50;2.67;;;;;;;13.72;100.00;102526.97;5034614;28;20036;-78
2023/10/04 00:05:19;;;;;;;8.63;2.22;;;;;;;13.70;100.00;102523.56;5034793;28;20026;-77
2023/10/04 00:07:49;;;;;;;8.80;2.10;;;;;;;13.67;100.00;102526.47;5035005;28;20025;-77
2023/10/04 00:10:15;;;;;;;10.88;2.30;;;;;;;13.67;100.00;102533.63;5016836;28;20071;-77
2023/10/04 00:12:42;;;;;;;9.02;2.20;;;;;;;13.68;100.00;102535.34;5034362;28;20041;-78
2023/10/04 00:15:14;;;;;;;10.20;2.40;;;;;;;13.73;100.00;102536.72;5034917;28;20064;-82
2023/10/04 00:17:44;;;;;;;9.30;2.28;;;;;;;13.82;100.00;102529.75;5034401;28;20147;-82
2023/10/04 00:20:17;;;;;;;9.75;2.47;;;;;;;13.88;100.00;102533.78;5034249;28;20021;-82
2023/10/04 00:22:43;;;;;;;11.20;2.33;;;;;;;13.89;100.00;102538.19;5034243;28;20382;-76
2023/10/04 00:25:20;;;;;;;6.70;1.98;;;;;;;13.83;100.00;102534.16;5034149;28;20459;-77
2023/10/04 00:27:46;;;;;;;12.00;2.50;;;;;;;13.77;100.00;102534.63;5034185;28;20044;-77
2023/10/04 00:30:17;;;;;;;9.80;2.50;;;;;;;13.72;100.00;102537.66;5034065;28;20081;-78
2023/10/04 00:32:46;;;;;;;13.52;2.53;;;;;;;13.71;100.00;102538.63;5034116;28;20033;-76
2023/10/04 00:35:17;;;;;;;9.30;2.05;;;;;;;13.72;100.00;102540.34;5033877;28;20029;-77
2023/10/04 00:37:47;;;;;;;6.28;2.00;;;;;;;13.67;100.00;102541.66;5034331;28;20033;-76
2023/10/04 00:40:19;;;;;;;6.40;2.38;;;;;;;13.66;100.00;102542.63;5034639;28;20065;-79
2023/10/04 00:42:49;;;;;;;13.55;2.65;;;;;;;13.62;100.00;102546.53;5034466;28;20044;-76
2023/10/04 00:45:19;;;;;;;9.65;2.40;;;;;;;13.54;100.00;102550.63;5034625;28;20120;-79
2023/10/04 00:47:53;;;;;;;7.75;2.20;;;;;;;13.51;100.00;102547.31;5034163;28;20418;-80
2023/10/04 00:50:29;;;;;;;8.75;2.10;;;;;;;13.53;100.00;102542.72;5034954;28;20045;-77
2023/10/04 00:53:03;;;;;;;9.40;1.90;;;;;;;13.54;100.00;102541.75;5034136;28;20025;-79
2023/10/04 00:55:31;;;;;;;13.23;2.28;;;;;;;13.55;100.00;102555.03;5034374;28;20204;-78
2023/10/04 00:57:57;;;;;;;12.73;2.63;;;;;;;13.53;100.00;102558.78;5033953;28;20037;-77
2023/10/04 01:00:24;;;;;;;8.02;2.00;;;;;;;13.52;100.00;102557.06;5016684;28;20129;-77
2023/10/04 01:02:50;;;;;;;8.38;2.38;;;;;;;13.48;100.00;102558.25;5034434;28;20034;-77
2023/10/04 01:05:16;;;;;;;9.93;2.17;;;;;;;13.50;100.00;102564.34;5034262;28;20036;-77
2023/10/04 01:07:47;;;;;;;6.95;2.20;;;;;;;13.52;100.00;102567.75;5034453;28;20041;-77
2023/10/04 01:10:16;;;;;;;10.80;2.45;;;;;;;13.53;100.00;102572.16;5034008;28;20033;-77
2023/10/04 01:12:51;;;;;;;11.35;2.55;;;;;;;13.55;100.00;102573.75;5033724;28;20029;-77
2023/10/04 01:15:30;;;;;;;10.95;2.08;;;;;;;13.54;100.00;102577.38;5033025;28;20033;-80
2023/10/04 01:18:00;;;;;;;8.90;2.13;;;;;;;13.53;100.00;102573.00;5034191;28;20048;-77
2023/10/04 01:20:33;;;;;;;9.07;2.03;;;;;;;13.52;100.00;102568.59;5033803;28;20037;-77
2023/10/04 01:23:02;;;;;;;13.18;2.25;;;;;;;13.52;100.00;102576.63;5033889;28;20370;-76
2023/10/04 01:25:29;;;;;;;8.25;2.17;;;;;;;13.48;100.00;102575.16;5033207;28;20052;-78
2023/10/04 01:27:54;;;;;;;12.70;1.98;;;;;;;13.47;100.00;102568.09;5015435;28;20433;-77
2023/10/04 01:30:20;;;;;;;8.40;2.05;;;;;;;13.42;100.00;102562.28;5033159;28;20033;-76
2023/10/04 01:32:47;;;;;;;10.32;2.65;;;;;;;13.37;100.00;102561.75;5033189;28;20044;-77
2023/10/04 01:35:13;;;;;;;8.10;2.30;;;;;;;13.35;100.00;102556.50;5032934;28;20045;-77
2023/10/04 01:37:39;;;;;;;8.85;1.70;;;;;;;13.39;100.00;102565.16;5033161;28;20033;-79
2023/10/04 01:40:12;;;;;;;8.20;2.17;;;;;;;13.38;100.00;102564.31;5033095;28;20545;-77
2023/10/04 01:42:40;;;;;;;8.05;2.28;;;;;;;13.37;100.00;102559.91;5033426;28;20153;-76
2023/10/04 01:45:12;;;;;;;9.57;2.70;;;;;;;13.39;100.00;102566.00;5033673;28;20041;-76
2023/10/04 01:47:38;;;;;;;16.17;2.08;;;;;;;13.42;100.00;102561.41;5032843;28;20084;-83
2023/10/04 01:50:06;;;;;;;4.57;1.88;;;;;;;13.42;100.00;102554.25;5033000;28;20033;-77
2023/10/04 01:52:31;;;;;;;7.25;2.00;;;;;;;13.42;100.00;102559.59;5033581;28;20033;-78
2023/10/04 01:54:58;;;;;;;13.80;2.63;;;;;;;13.41;100.00;102555.22;5034543;28;20053;-77
2023/10/04 01:57:23;;;;;;;9.05;2.40;;;;;;;13.38;100.00;102545.59;5032988;28;20033;-76
2023/10/04 01:59:49;;;;;;;10.57;2.00;;;;;;;13.38;100.00;102547.41;5032844;28;20029;-76
2023/10/04 02:02:14;;;;;;;8.98;2.20;;;;;;;13.37;100.00;102543.88;5032760;28;20388;-77
2023/10/04 02:04:40;;;;;;;10.45;2.88;;;;;;;13.39;100.00;102541.09;5032847;28;20363;-77
2023/10/04 02:07:05;;;;;;;10.68;2.10;;;;;;;13.41;100.00;102552.53;5032817;28;20060;-77
2023/10/04 02:09:30;;;;;;;14.52;2.40;;;;;;;13.39;100.00;102560.66;5032900;28;20029;-77
2023/10/04 02:11:56;;;;;;;9.68;2.75;;;;;;;13.36;100.00;102560.91;5014892;28;20068;-76
2023/10/04 02:14:21;;;;;;;12.32;2.60;;;;;;;13.32;100.00;102569.25;5032548;28;20029;-76
2023/10/04 02:16:46;;;;;;;12.30;2.40;;;;;;;13.33;100.00;102571.78;5036430;28;20488;-77
2023/10/04 02:19:12;;;;;;;8.30;2.33;;;;;;;13.30;100.00;102571.16;5036693;28;20518;-76
2023/10/04 02:21:37;;;;;;;10.82;2.70;;;;;;;13.26;100.00;102573.22;5018624;28;20052;-77
2023/10/04 02:24:03;;;;;;;13.35;2.38;;;;;;;13.27;100.00;102571.38;5018677;28;20068;-78
2023/10/04 02:26:28;;;;;;;7.38;3.05;;;;;;;13.27;100.00;102572.25;5036310;28;20032;-76
2023/10/04 02:28:55;;;;;;;8.02;2.60;;;;;;;13.28;100.00;102576.63;5036359;28;20040;-78
2023/10/04 02:31:21;;;;;;;11.60;2.30;;;;;;;13.30;100.00;102574.69;5036316;28;20030;-77
2023/10/04 02:33:50;;;;;;;16.42;2.72;;;;;;;13.31;100.00;102587.09;5036789;28;20038;-77
2023/10/04 02:36:15;;;;;;;12.60;2.65;;;;;;;13.29;100.00;102586.34;5036369;28;20036;-77
2023/10/04 02:38:41;;;;;;;10.38;2.15;;;;;;;13.31;100.00;102586.25;5036710;28;20378;-77
2023/10/04 02:41:06;;;;;;;8.82;2.28;;;;;;;13.34;100.00;102586.88;5036135;28;20477;-77
2023/10/04 02:43:32;;;;;;;7.53;1.92;;;;;;;13.34;100.00;102581.53;5018562;28;20462;-76
2023/10/04 02:45:58;;;;;;;9.68;2.63;;;;;;;13.37;100.00;102581.31;5036136;28;20473;-78
2023/10/04 02:48:24;;;;;;;7.90;2.20;;;;;;;13.38;100.00;102583.00;5035920;28;20063;-76
2023/10/04 02:50:49;;;;;;;11.13;2.47;;;;;;;13.32;100.00;102585.28;5035913;28;20497;-76
2023/10/04 02:53:16;;;;;;;8.07;2.30;;;;;;;13.24;100.00;102588.50;5035906;28;20068;-76
2023/10/04 02:55:43;;;;;;;13.52;2.40;;;;;;;13.17;100.00;102584.59;5036064;28;20092;-77
2023/10/04 02:58:10;;;;;;;11.90;2.30;;;;;;;13.10;100.00;102580.66;5035925;28;20068;-78
2023/10/04 03:00:43;;;;;;;9.68;2.47;;;;;;;13.08;100.00;102585.25;5035674;28;20411;-76
2023/10/04 03:03:08;;;;;;;11.88;2.17;;;;;;;13.09;100.00;102585.13;5019239;28;20101;-75
2023/10/04 03:05:36;;;;;;;9.30;2.55;;;;;;;13.08;100.00;102585.25;5035698;28;20143;-76
2023/10/04 03:08:07;;;;;;;10.88;2.30;;;;;;;13.03;100.00;102594.50;5035728;28;20068;-76
2023/10/04 03:10:33;;;;;;;7.32;2.10;;;;;;;12.99;100.00;102578.78;5036162;28;20033;-76
2023/10/04 03:13:01;;;;;;;12.00;2.78;;;;;;;12.94;100.00;102587.13;5036050;28;20061;-78
2023/10/04 03:15:28;;;;;;;12.88;2.42;;;;;;;12.92;100.00;102589.06;5035399;28;20048;-77
2023/10/04 03:17:55;;;;;;;16.33;2.50;;;;;;;12.88;100.00;102587.56;5035460;28;20034;-76
2023/10/04 03:20:21;;;;;;;7.32;2.40;;;;;;;12.83;100.00;102592.41;5036191;28;20366;-77
2023/10/04 03:22:54;;;;;;;12.40;2.72;;;;;;;12.82;100.00;102572.00;5035150;28;20022;-76
2023/10/04 03:25:20;;;;;;;9.23;2.58;;;;;;;12.77;100.00;102576.81;5035339;28;20038;-76
2023/10/04 03:27:46;;;;;;;10.52;2.78;;;;;;;12.74;100.00;102567.22;5034492;28;20049;-77
2023/10/04 03:30:14;;;;;;;11.13;3.03;;;;;;;12.68;100.00;102575.66;5035209;28;20045;-77
2023/10/04 03:32:45;;;;;;;11.18;2.97;;;;;;;12.64;100.00;102572.34;5035102;28;20037;-77
2023/10/04 03:35:14;;;;;;;14.45;3.33;;;;;;;12.58;100.00;102577.28;5035960;28;20041;-77
2023/10/04 03:37:48;;;;;;;10.13;2.15;;;;;;;12.52;100.00;102581.25;5035095;28;20033;-77
2023/10/04 03:40:14;;;;;;;18.30;3.05;;;;;;;12.48;100.00;102583.28;5035104;28;20048;-76
2023/10/04 03:42:41;;;;;;;13.77;2.58;;;;;;;12.48;100.00;102583.28;5034830;28;20041;-78
2023/10/04 03:45:10;;;;;;;19.27;2.90;;;;;;;12.49;100.00;102584.13;5035352;28;20038;-76
2023/10/04 03:47:36;;;;;;;10.75;2.58;;;;;;;12.50;100.00;102577.84;5035603;28;20123;-76
2023/10/04 03:50:01;;;;;;;18.10;2.75;;;;;;;12.52;100.00;102574.13;5017774;28;20470;-76
2023/10/04 03:52:28;;;;;;;15.77;2.85;;;;;;;12.59;100.00;102571.00;5035063;28;20029;-76
2023/10/04 03:54:54;;;;;;;12.93;3.28;;;;;;;12.61;100.00;102564.56;5034282;28;20029;-76
2023/10/04 03:57:20;;;;;;;13.68;2.78;;;;;;;12.58;100.00;102569.28;5034951;28;20083;-77
2023/10/04 03:59:45;;;;;;;12.57;2.70;;;;;;;12.52;100.00;102565.22;5034307;28;20140;-76
2023/10/04 04:02:11;;;;;;;13.35;3.00;;;;;;;12.45;100.00;102559.50;5016670;28;20065;-77
2023/10/04 04:04:36;;;;;;;14.60;3.00;;;;;;;12.38;100.00;102552.88;5016986;28;20108;-77
2023/10/04 04:07:02;;;;;;;10.48;3.13;;;;;;;12.29;100.00;102559.72;5034459;28;20116;-76
2023/10/04 04:09:28;;;;;;;18.15;3.08;;;;;;;12.22;100.00;102552.25;5016732;28;20037;-76
2023/10/04 04:11:53;;;;;;;16.15;2.95;;;;;;;12.26;100.00;102543.91;5034436;28;20041;-77
2023/10/04 04:14:19;;;;;;;10.50;2.67;;;;;;;12.26;100.00;102541.25;5034327;28;20441;-77
2023/10/04 04:16:46;;;;;;;12.35;3.40;;;;;;;12.24;100.00;102548.53;5034548;28;20030;-77
2023/10/04 04:19:14;;;;;;;8.07;2.40;;;;;;;12.19;100.00;102550.66;5034358;28;20046;-76
2023/10/04 04:21:39;;;;;;;11.15;2.85;;;;;;;12.13;100.00;102557.25;5034505;28;20124;-76
2023/10/04 04:24:05;;;;;;;13.02;2.63;;;;;;;12.12;100.00;102566.25;5034371;28;20120;-76
2023/10/04 04:26:30;;;;;;;14.40;3.03;;;;;;;12.11;100.00;102566.34;5033904;28;20523;-77
2023/10/04 04:28:55;;;;;;;9.38;2.65;;;;;;;12.09;100.00;102570.91;5034614;28;20072;-77
2023/10/04 04:31:21;;;;;;;15.35;3.00;;;;;;;12.07;100.00;102568.38;5016344;28;20458;-76
2023/10/04 04:33:46;;;;;;;10.30;2.67;;;;;;;12.07;100.00;102586.19;5033949;28;20040;-77
2023/10/04 04:36:19;;;;;;;11.88;2.53;;;;;;;12.07;100.00;102572.84;5034167;28;20442;-77
2023/10/04 04:38:47;;;;;;;13.55;2.65;;;;;;;12.10;100.00;102580.66;5034383;28;20033;-76
2023/10/04 04:41:13;;;;;;;12.18;2.63;;;;;;;12.15;100.00;102583.84;5033951;28;20500;-76
2023/10/04 04:43:39;;;;;;;16.48;3.08;;;;;;;12.21;100.00;102582.56;5033653;28;20033;-76
2023/10/04 04:46:09;;;;;;;9.32;2.80;;;;;;;12.33;100.00;102585.22;5033858;28;20427;-75
2023/10/04 04:48:36;;;;;;;12.07;2.50;;;;;;;12.43;100.00;102582.75;5016398;28;20374;-75
2023/10/04 04:51:10;;;;;;;14.48;3.05;;;;;;;12.51;100.00;102579.56;5033778;28;20142;-76
2023/10/04 04:53:39;;;;;;;15.60;3.10;;;;;;;12.55;100.00;102574.84;5034426;28;20026;-76
2023/10/04 04:56:06;;;;;;;14.82;3.03;;;;;;;12.55;100.00;102585.53;5035809;28;20424;-77
2023/10/04 04:58:32;;;;;;;12.13;3.47;;;;;;;12.56;100.00;102596.09;5033328;28;20067;-77
2023/10/04 05:01:00;;;;;;;8.75;2.80;;;;;;;12.49;100.00;102593.00;5034214;28;20033;-79
2023/10/04 05:03:27;;;;;;;10.45;2.88;;;;;;;12.42;100.00;102594.41;5015559;28;20117;-77
2023/10/04 05:05:55;;;;;;;7.65;2.60;;;;;;;12.39;100.00;102591.97;5034601;28;20120;-77
2023/10/04 05:08:22;;;;;;;11.32;3.33;;;;;;;12.33;100.00;102601.25;5033579;28;20045;-76
2023/10/04 05:10:49;;;;;;;11.40;3.30;;;;;;;12.29;100.00;102615.75;5034076;28;20029;-76
2023/10/04 05:13:16;;;;;;;8.52;2.25;;;;;;;12.32;100.00;102606.69;5034662;28;20108;-78
2023/10/04 05:15:42;;;;;;;17.98;3.45;;;;;;;12.39;100.00;102613.31;5033799;28;20117;-80
2023/10/04 05:18:15;;;;;;;11.15;2.70;;;;;;;12.50;100.00;102609.88;5034238;28;20520;-77
2023/10/04 05:20:45;;;;;;;10.85;2.83;;;;;;;12.50;100.00;102605.38;5001351;28;20421;-78
2023/10/04 05:23:11;;;;;;;15.02;3.75;;;;;;;12.48;100.00;102609.13;5034249;28;20037;-77
2023/10/04 05:25:37;;;;;;;18.30;3.20;;;;;;;12.42;100.00;102606.88;5033756;28;20040;-77
2023/10/04 05:28:09;;;;;;;8.98;2.85;;;;;;;12.33;100.00;102606.59;5033739;28;20025;-78
2023/10/04 05:30:38;;;;;;;11.40;3.00;;;;;;;12.25;100.00;102611.59;5033662;28;20036;-77
2023/10/04 05:33:06;;;;;;;16.05;3.05;;;;;;;12.15;100.00;102616.72;5033384;28;20043;-77
2023/10/04 05:35:33;;;;;;;20.55;4.95;;;;;;;12.14;100.00;102616.84;5015712;28;20040;-76
2023/10/04 05:37:58;;;;;;;16.13;3.38;;;;;;;12.14;100.00;102622.19;5015830;28;20048;-78
2023/10/04 05:40:27;;;;;;;19.08;3.00;;;;;;;12.13;100.00;102615.97;5033784;28;20038;-78
2023/10/04 05:42:53;;;;;;;17.20;3.38;;;;;;;12.13;100.00;102617.78;5033098;28;20069;-77
2023/10/04 05:45:20;;;;;;;10.05;2.97;;;;;;;12.14;100.00;102624.84;5033869;28;20140;-77
2023/10/04 05:47:46;;;;;;;15.48;3.70;;;;;;;12.14;100.00;102623.00;5033057;28;20056;-77
2023/10/04 05:50:14;;;;;;;14.27;3.30;;;;;;;12.16;100.00;102623.75;5034374;28;20063;-77
2023/10/04 05:52:41;;;;;;;16.10;3.05;;;;;;;12.20;100.00;102624.41;5037493;28;20040;-77
2023/10/04 05:55:08;;;;;;;13.02;2.75;;;;;;;12.24;100.00;102627.72;5036985;28;20425;-77
2023/10/04 05:57:35;;;;;;;22.92;4.05;;;;;;;12.26;100.00;102629.31;5037030;28;20089;-77
2023/10/04 06:00:21;;;;;;;12.65;3.22;;;;;;;12.25;100.00;102624.09;5036480;28;20076;-76
2023/10/04 06:02:50;;;;;;;18.17;4.95;;;;;;;12.31;100.00;102627.16;5036753;28;20098;-77
2023/10/04 06:05:16;;;;;;;16.50;4.13;;;;;;;12.36;100.00;102626.88;5036916;28;20049;-77
2023/10/04 06:07:43;;;;;;;15.98;3.95;;;;;;;12.39;100.00;102625.78;5036972;28;20491;-77
2023/10/04 06:10:11;;;;;;;13.23;3.30;;;;;;;12.45;100.00;102623.56;5036891;28;20030;-77
2023/10/04 06:12:36;;;;;;;12.90;3.92;;;;;;;12.56;100.00;102630.81;5036686;28;20032;-77
2023/10/04 06:15:02;;;;;;;15.15;3.28;;;;;;;12.64;100.00;102639.09;5036715;28;20034;-77
2023/10/04 06:17:28;;;;;;;15.48;3.30;;;;;;;12.70;100.00;102636.03;5036895;28;20036;-77
2023/10/04 06:19:54;;;;;;;19.27;3.72;;;;;;;12.75;100.00;102634.81;5036531;28;20037;-77
2023/10/04 06:22:19;;;;;;;11.93;3.63;;;;;;;12.83;100.00;102638.66;5036740;28;20480;-77
2023/10/04 06:24:45;;;;;;;12.38;3.78;;;;;;;12.92;100.00;102645.16;5037148;28;20057;-77
2023/10/04 06:27:11;;;;;;;15.43;4.00;;;;;;;12.98;100.00;102642.03;5035210;28;20044;-77
2023/10/04 06:29:36;;;;;;;15.85;4.07;;;;;;;13.05;100.00;102639.78;5036491;28;20113;-77
2023/10/04 06:32:03;;;;;;;23.00;4.60;;;;;;;13.12;100.00;102640.19;5036434;28;20370;-77
2023/10/04 06:34:28;;;;;;;10.82;3.85;;;;;;;13.17;100.00;102630.88;5035806;28;20026;-77
2023/10/04 06:36:53;;;;;;;15.40;4.10;;;;;;;13.22;100.00;102635.88;5036021;28;20037;-78
2023/10/04 06:39:19;;;;;;;12.93;3.63;;;;;;;13.23;100.00;102635.78;5036123;28;20072;-75
2023/10/04 06:41:44;;;;;;;15.68;3.70;;;;;;;13.28;100.00;102635.44;5035173;28;20062;-76
2023/10/04 06:44:10;;;;;;;16.13;4.30;;;;;;;13.32;100.00;102642.25;5036188;28;20069;-76
2023/10/04 06:46:36;;;;;;;16.23;3.83;;;;;;;13.40;100.00;102647.06;5036118;28;20111;-78
2023/10/04 06:49:02;;;;;;;19.95;4.43;;;;;;;13.50;100.00;102641.91;5035927;28;20034;-76
2023/10/04 06:51:28;;;;;;;16.58;4.68;;;;;;;13.64;100.00;102649.72;5036012;28;20029;-76
2023/10/04 06:53:53;;;;;;;15.98;3.88;;;;;;;13.81;100.00;102653.81;5035928;28;20087;-79
2023/10/04 06:56:18;;;;;;;13.85;3.53;;;;;;;13.94;100.00;102651.06;5036096;28;20059;-76
2023/10/04 06:58:44;;;;;;;14.07;3.80;;;;;;;14.00;100.00;102655.97;5017773;28;20113;-73
2023/10/04 07:01:10;;;;;;;21.35;4.65;;;;;;;14.04;100.00;102657.41;5035518;28;20462;-74
2023/10/04 07:03:35;;;;;;;19.55;4.13;;;;;;;14.08;100.00;102660.72;5035901;28;20041;-76
2023/10/04 07:06:00;;;;;;;14.73;4.20;;;;;;;14.07;100.00;102665.19;5035601;28;20152;-77
2023/10/04 07:08:32;;;;;;;13.30;3.85;;;;;;;14.06;100.00;102660.84;5018012;28;20040;-74
2023/10/04 07:11:00;;;;;;;18.60;4.22;;;;;;;14.04;100.00;102659.25;5036374;28;20080;-75
2023/10/04 07:13:26;;;;;;;13.65;3.53;;;;;;;14.02;100.00;102658.53;5036142;28;20034;-75
2023/10/04 07:15:52;;;;;;;20.77;3.75;;;;;;;14.02;100.00;102669.22;5035416;28;20454;-75
2023/10/04 07:18:17;;;;;;;15.27;3.60;;;;;;;14.00;100.00;102661.31;5035439;28;20044;-74
2023/10/04 07:20:43;;;;;;;20.20;3.80;;;;;;;14.06;100.00;102668.00;5035706;28;20029;-74
2023/10/04 07:23:10;;;;;;;15.57;4.28;;;;;;;14.08;100.00;102669.59;5035037;28;20541;-77
2023/10/04 07:25:44;;;;;;;14.60;3.83;;;;;;;14.16;100.00;102668.16;5035070;28;20061;-74
2023/10/04 07:28:11;;;;;;;15.88;3.58;;;;;;;14.27;100.00;102668.16;5035450;28;20064;-73
2023/10/04 07:30:38;;;;;;;23.85;4.78;;;;;;;14.33;100.00;102670.38;5035585;28;20037;-74
2023/10/04 07:33:03;;;;;;;12.05;3.60;;;;;;;14.39;100.00;102672.59;5035224;28;20116;-75
2023/10/04 07:35:31;;;;;;;12.70;4.28;;;;;;;14.45;100.00;102673.91;5034847;28;20033;-74
2023/10/04 07:37:58;;;;;;;10.68;3.60;;;;;;;14.50;100.00;102673.56;5017972;28;20335;-73
2023/10/04 07:40:25;;;;;;;15.88;4.25;;;;;;;14.54;100.00;102677.69;5017031;28;20037;-74
2023/10/04 07:42:53;;;;;;;16.65;4.15;;;;;;;14.65;100.00;102679.59;5017245;28;20021;-74
2023/10/04 07:45:23;;;;;;;15.35;4.30;;;;;;;14.73;100.00;102683.34;5034982;28;20033;-76
2023/10/04 07:47:48;;;;;;;22.75;3.90;;;;;;;14.85;100.00;102689.56;5035018;28;20029;-75
2023/10/04 07:50:19;;;;;;;9.98;3.80;;;;;;;14.92;100.00;102696.13;5034898;28;20465;-76
2023/10/04 07:52:44;;;;;;;17.88;3.95;;;;;;;15.01;100.00;102691.03;5035210;28;20450;-73
2023/10/04 07:55:18;;;;;;;11.32;3.67;;;;;;;15.06;100.00;102688.81;5034542;28;20104;-74
2023/10/04 07:57:52;;;;;;;15.57;3.97;;;;;;;15.10;100.00;102696.47;5018284;28;20479;-73
2023/10/04 08:00:18;;;;;;;14.93;4.38;;;;;;;15.13;100.00;102692.72;5034680;28;20455;-76
2023/10/04 08:02:51;;;;;;;13.05;3.60;;;;;;;15.21;100.00;102694.75;5034448;28;20048;-76
2023/10/04 08:05:21;;;;;;;12.30;4.10;;;;;;;15.28;100.00;102699.50;5034880;28;20152;-74
2023/10/04 08:07:48;;;;;;;14.35;3.42;;;;;;;15.36;100.00;102696.22;5034872;28;20457;-75
2023/10/04 08:10:14;;;;;;;13.25;3.53;;;;;;;15.38;100.00;102698.78;5034478;28;20067;-74
2023/10/04 08:12:42;;;;;;;13.43;3.97;;;;;;;15.45;100.00;102703.50;5034188;28;20034;-74
2023/10/04 08:15:09;;;;;;;10.20;3.17;;;;;;;15.61;100.00;102707.59;5016761;28;20065;-75
2023/10/04 08:17:34;;;;;;;13.57;3.65;;;;;;;15.75;100.00;102703.75;5034301;28;20044;-74
2023/10/04 08:20:00;;;;;;;17.48;3.65;;;;;;;15.79;100.00;102702.56;5034447;28;20029;-75
2023/10/04 08:22:25;;;;;;;14.88;3.83;;;;;;;15.73;100.00;102706.56;5034607;28;20034;-74
2023/10/04 08:24:52;;;;;;;10.70;3.45;;;;;;;15.68;100.00;102708.81;5034758;28;20102;-75
2023/10/04 08:27:18;;;;;;;13.07;3.38;;;;;;;15.56;100.00;102699.94;5034695;28;20446;-76
2023/10/04 08:29:44;;;;;;;12.68;3.35;;;;;;;15.47;100.00;102700.69;5034470;28;20120;-75
2023/10/04 08:32:10;;;;;;;18.85;4.18;;;;;;;15.39;100.00;102712.06;5034318;28;20036;-75
2023/10/04 08:34:35;;;;;;;14.77;3.20;;;;;;;15.36;100.00;102690.84;5000105;28;20432;-75
2023/10/04 08:37:01;;;;;;;12.55;3.28;;;;;;;15.34;100.00;102704.34;5034298;28;20108;-75
2023/10/04 08:39:26;;;;;;;14.07;3.83;;;;;;;15.32;100.00;102697.44;5016002;28;20029;-77
2023/10/04 08:41:52;;;;;;;17.00;3.65;;;;;;;15.30;100.00;102697.56;5034143;28;20036;-76
2023/10/04 08:44:18;;;;;;;11.52;3.38;;;;;;;15.32;100.00;102692.06;5016301;28;20111;-73
2023/10/04 08:46:46;;;;;;;14.82;3.50;;;;;;;15.32;100.00;102700.97;5033598;28;20140;-78
2023/10/04 08:49:15;;;;;;;12.68;3.17;;;;;;;15.49;100.00;102704.09;5033799;28;20029;-75
2023/10/04 08:51:54;;;;;;;12.63;3.00;;;;;;;15.77;100.00;102699.13;5033352;28;20038;-75
2023/10/04 08:54:24;;;;;;;16.58;3.53;;;;;;;15.99;100.00;102693.69;5033968;28;20070;-75
2023/10/04 08:57:03;;;;;;;14.38;2.88;;;;;;;16.06;100.00;102702.06;5035726;28;20502;-75
2023/10/04 08:59:29;;;;;;;13.77;3.17;;;;;;;16.27;100.00;102693.16;5034108;28;20470;-76
2023/10/04 09:01:57;;;;;;;14.45;3.40;;;;;;;16.41;100.00;102692.84;5000464;28;20370;-74
2023/10/04 09:04:24;;;;;;;11.02;3.17;;;;;;;16.66;100.00;102698.75;5034004;28;20458;-76
2023/10/04 09:06:51;;;;;;;13.13;3.40;;;;;;;16.76;100.00;102696.97;5033512;28;20072;-74
2023/10/04 09:09:18;;;;;;;10.77;3.53;;;;;;;16.65;100.00;102689.00;5015726;28;20053;-76
2023/10/04 09:11:44;;;;;;;8.93;2.83;;;;;;;16.74;100.00;102691.72;5033529;28;20567;-76
2023/10/04 09:14:09;;;;;;;9.30;3.20;;;;;;;16.59;100.00;102692.25;5033646;28;20026;-75
2023/10/04 09:16:35;;;;;;;15.20;3.45;;;;;;;16.43;100.00;102692.72;5033380;28;20113;-76
2023/10/04 09:19:18;;;;;;;9.98;3.17;;;;;;;16.48;100.00;102699.41;5015848;28;20034;-76
2023/10/04 09:21:51;;;;;;;12.75;2.95;;;;;;;16.61;100.00;102696.47;5033609;28;20562;-75
2023/10/04 09:24:16;;;;;;;9.63;3.08;;;;;;;16.68;100.00;102699.50;5032592;28;20040;-77
2023/10/04 09:26:55;;;;;;;13.70;2.80;;;;;;;16.74;100.00;102707.84;5033452;28;20030;-75
2023/10/04 09:29:35;;;;;;;8.90;3.03;;;;;;;16.84;100.00;102709.72;5033267;28;20536;-74
2023/10/04 09:32:02;;;;;;;13.95;3.45;;;;;;;16.83;100.00;102706.19;5034535;28;20045;-77
2023/10/04 09:34:28;;;;;;;13.27;3.55;;;;;;;16.79;100.00;102704.75;5033401;28;20044;-74
2023/10/04 09:36:54;;;;;;;16.35;3.42;;;;;;;16.74;100.00;102701.63;5034294;28;20034;-75
2023/10/04 09:39:25;;;;;;;10.63;3.20;;;;;;;16.70;100.00;102705.56;5033719;28;20057;-76
2023/10/04 09:41:52;;;;;;;11.70;3.63;;;;;;;16.72;100.00;102703.63;5034873;28;20037;-74
2023/10/04 09:44:29;;;;;;;10.90;2.85;;;;;;;16.86;100.00;102697.88;5034236;28;20037;-74
2023/10/04 09:47:00;;;;;;;12.65;3.15;;;;;;;16.95;100.00;102700.78;5034180;28;20446;-75
2023/10/04 09:49:31;;;;;;;8.35;3.05;;;;;;;16.96;100.00;102695.25;5015740;28;20371;-75
2023/10/04 09:51:57;;;;;;;7.75;3.05;;;;;;;16.89;100.00;102699.47;5033295;28;20032;-77
2023/10/04 09:54:24;;;;;;;15.32;3.88;;;;;;;17.10;100.00;102705.63;5032997;28;20120;-75
2023/10/04 09:56:51;;;;;;;10.80;3.38;;;;;;;17.21;100.00;102702.00;5033009;28;20389;-78
2023/10/04 09:59:21;;;;;;;9.20;3.00;;;;;;;17.01;100.00;102703.75;5033323;28;20431;-76
2023/10/04 10:01:55;;;;;;;16.83;3.75;;;;;;;16.76;100.00;102702.34;5033324;28;20034;-76
2023/10/04 10:04:25;;;;;;;11.82;3.08;;;;;;;16.72;100.00;102703.63;5033401;28;20432;-75
2023/10/04 10:07:06;;;;;;;13.83;3.03;;;;;;;16.95;100.00;102695.41;5033207;28;20095;-75
2023/10/04 10:09:34;;;;;;;11.98;3.15;;;;;;;17.12;100.00;102700.09;5032829;28;20017;-77
2023/10/04 10:12:02;;;;;;;15.63;3.80;;;;;;;17.11;100.00;102695.72;5015056;28;20136;-79
2023/10/04 10:14:29;;;;;;;10.77;3.28;;;;;;;16.87;100.00;102702.28;5032633;28;20482;-75
2023/10/04 10:16:55;;;;;;;13.13;3.33;;;;;;;16.80;100.00;102700.25;5032652;28;20029;-82
2023/10/04 10:19:23;;;;;;;10.88;3.00;;;;;;;17.05;100.00;102702.50;5032769;28;20425;-77
2023/10/04 10:22:10;;;;;;;10.80;3.03;;;;;;;17.06;100.00;102696.16;5032279;28;20393;-76
2023/10/04 10:24:44;;;;;;;12.27;3.30;;;;;;;17.14;100.00;102697.28;5033391;28;20038;-76
2023/10/04 10:27:12;;;;;;;13.82;3.58;;;;;;;17.13;100.00;102691.06;5033064;28;20116;-76
2023/10/04 10:29:40;;;;;;;8.20;3.17;;;;;;;16.86;100.00;102687.09;5032724;28;20100;-79
2023/10/04 10:32:23;;;;;;;12.77;3.25;;;;;;;16.72;100.00;102695.56;5032444;28;20112;-81
2023/10/04 10:34:56;;;;;;;15.48;3.33;;;;;;;16.74;100.00;102693.56;5032690;28;20354;-77
2023/10/04 10:37:23;;;;;;;10.20;3.20;;;;;;;16.62;100.00;102690.13;5035670;28;20037;-76
2023/10/04 10:39:55;;;;;;;8.02;3.30;;;;;;;16.53;100.00;102686.41;5036216;28;20036;-77
2023/10/04 10:42:22;;;;;;;16.73;3.58;;;;;;;16.46;100.00;102687.06;5018431;28;20025;-75
2023/10/04 10:44:50;;;;;;;12.52;3.20;;;;;;;16.40;100.00;102686.59;5036074;28;20374;-75
2023/10/04 10:47:41;;;;;;;12.13;3.50;;;;;;;16.45;100.00;102679.97;5036076;28;20079;-77
2023/10/04 10:50:33;;;;;;;15.15;3.70;;;;;;;16.52;100.00;102683.84;5020119;28;20033;-76
2023/10/04 10:53:05;;;;;;;15.30;3.33;;;;;;;16.57;100.00;102684.31;5036299;28;20033;-77
2023/10/04 10:55:32;;;;;;;14.52;3.95;;;;;;;16.59;100.00;102685.00;5034924;28;20053;-76
2023/10/04 10:57:57;;;;;;;11.50;3.25;;;;;;;16.46;100.00;102676.31;5036154;28;20112;-76
2023/10/04 11:00:23;;;;;;;11.73;3.65;;;;;;;16.44;100.00;102684.53;5035902;28;20530;-75
2023/10/04 11:02:53;;;;;;;12.27;3.33;;;;;;;16.34;100.00;102689.81;5035845;28;20030;-74
2023/10/04 11:05:20;;;;;;;15.23;3.92;;;;;;;16.17;100.00;102695.81;5035096;28;20449;-75
2023/10/04 11:07:48;;;;;;;10.20;3.47;;;;;;;15.97;100.00;102703.72;5035188;28;20037;-74
2023/10/04 11:10:17;;;;;;;18.60;5.13;;;;;;;15.74;100.00;102702.06;5035346;28;20116;-78
2023/10/04 11:12:57;;;;;;;11.10;3.75;;;;;;;15.50;100.00;102697.75;5035169;28;20021;-74
2023/10/04 11:15:27;;;;;;;15.77;3.45;;;;;;;15.22;100.00;102697.31;5035270;28;20424;-75